createdAt,value
2023-03-14T00:46:16.848Z,17
2023-03-14T01:16:17.858Z,18
2023-03-14T01:46:15.370Z,17
2023-03-14T02:16:11.297Z,17
2023-03-14T02:46:10.663Z,17
2023-03-14T03:16:09.518Z,17
2023-03-14T03:46:08.003Z,17
2023-03-14T04:16:08.881Z,15
2023-03-14T04:46:05.304Z,18
2023-03-14T05:16:05.393Z,14
2023-03-14T05:46:05.253Z,14
2023-03-14T06:16:06.847Z,14
2023-03-14T06:46:01.945Z,14
2023-03-14T07:16:05.966Z,14
2023-03-14T07:46:05.030Z,187
2023-03-14T08:16:05.421Z,112
2023-03-14T08:46:05.248Z,106
2023-03-14T09:16:06.141Z,104
2023-03-14T09:46:09.682Z,115
2023-03-14T10:16:09.023Z,101
2023-03-14T10:46:01.814Z,100
2023-03-14T11:15:58.717Z,97
2023-03-14T11:45:58.123Z,94
2023-03-14T12:15:56.806Z,93
2023-03-14T12:45:58.661Z,91
2023-03-14T13:15:54.257Z,89
2023-03-14T13:45:53.086Z,87
2023-03-14T14:15:58.333Z,22
2023-03-14T14:45:59.512Z,108
2023-03-14T15:15:53.142Z,94
2023-03-14T15:45:55.651Z,101
2023-03-14T16:15:52.298Z,94
2023-03-14T16:45:43.792Z,90
2023-03-14T17:15:40.992Z,106
2023-03-14T17:46:47.307Z,94
2023-03-14T18:17:49.719Z,92
2023-03-14T18:47:39.205Z,91
2023-03-14T19:17:41.214Z,89
2023-03-14T19:47:42.393Z,88
2023-03-14T20:17:45.630Z,86
2023-03-14T20:47:44.685Z,84
2023-03-14T21:17:44.905Z,22
2023-03-14T21:47:41.853Z,80
2023-03-14T22:17:38.911Z,21
2023-03-14T22:47:35.647Z,20
2023-03-14T23:17:32.217Z,76
2023-03-14T23:47:34.165Z,75
